Time;durP1;ratioP1;P1;durP2;ratioP2;P2;SDS_P1;SDS_P2;PMS_P1;PMS_P2;Temp;Humidity;BMP_temperature;BMP_pressure;BME280_temperature;BME280_humidity;BME280_pressure;Samples;Min_cycle;Max_cycle;Signal;HPM_P1;HPM_P2
2021/03/05 00:02:09;;;;;;;39.38;15.63;;;;;;;3.14;70.96;99613.78;5099526;28;20060;-47
2021/03/05 00:04:35;;;;;;;27.25;13.60;;;;;;;3.12;71.52;99613.78;5098448;28;20441;-47
2021/03/05 00:07:01;;;;;;;31.33;15.25;;;;;;;3.10;71.86;99609.47;5098101;28;20048;-47
2021/03/05 00:09:27;;;;;;;33.90;15.27;;;;;;;3.13;72.27;99606.88;5097907;28;20047;-47
2021/03/05 00:11:53;;;;;;;30.65;14.52;;;;;;;3.17;72.39;99612.06;5096951;28;20075;-47
2021/03/05 00:14:18;;;;;;;29.90;14.65;;;;;;;3.12;72.38;99602.53;5097765;28;20048;-47
2021/03/05 00:16:44;;;;;;;32.55;16.20;;;;;;;3.11;72.86;99606.88;5097998;28;20059;-47
2021/03/05 00:19:10;;;;;;;31.80;14.57;;;;;;;3.12;72.85;99613.78;5097762;28;20445;-47
2021/03/05 00:21:36;;;;;;;27.20;14.18;;;;;;;3.12;73.18;99606.03;5097362;28;20047;-47
2021/03/05 00:24:01;;;;;;;32.05;15.05;;;;;;;3.09;73.43;99615.47;5097659;28;20048;-47
2021/03/05 00:26:27;;;;;;;32.42;14.70;;;;;;;3.12;73.74;99620.66;5096770;28;20059;-47
2021/03/05 00:28:53;;;;;;;35.13;16.55;;;;;;;3.02;74.19;99610.31;5097886;28;20048;-47
2021/03/05 00:31:19;;;;;;;30.38;13.05;;;;;;;3.07;74.32;99612.91;5080193;28;20055;-47
2021/03/05 00:33:45;;;;;;;34.05;14.73;;;;;;;3.06;74.33;99599.97;5097782;28;20048;-47
2021/03/05 00:36:11;;;;;;;26.48;13.30;;;;;;;3.08;74.25;99598.22;5096913;28;20052;-47
2021/03/05 00:38:36;;;;;;;24.13;13.15;;;;;;;3.13;74.14;99602.56;5096823;28;20051;-47
2021/03/05 00:41:02;;;;;;;26.20;14.18;;;;;;;3.07;74.16;99602.53;5097704;28;20055;-47
2021/03/05 00:43:28;;;;;;;29.27;15.27;;;;;;;3.05;74.43;99609.44;5096519;28;20432;-47
2021/03/05 00:45:54;;;;;;;34.95;15.45;;;;;;;3.03;74.78;99609.44;5097607;28;20058;-47
2021/03/05 00:48:23;;;;;;;33.63;15.15;;;;;;;3.06;74.85;99618.09;5096414;28;20059;-47
2021/03/05 00:50:49;;;;;;;31.65;15.18;;;;;;;3.05;74.99;99612.03;5080039;28;20040;-47
2021/03/05 00:53:15;;;;;;;28.67;14.82;;;;;;;2.99;75.25;99620.66;5097490;28;20055;-47
2021/03/05 00:55:41;;;;;;;29.83;14.35;;;;;;;3.04;75.06;99618.94;5079602;28;20046;-47
2021/03/05 00:58:12;;;;;;;28.70;15.23;;;;;;;3.07;75.22;99617.22;5080564;28;20036;-47
2021/03/05 01:00:38;;;;;;;33.83;15.88;;;;;;;2.98;75.58;99615.47;5097134;28;20051;-47
2021/03/05 01:03:04;;;;;;;26.92;14.77;;;;;;;3.00;75.66;99621.50;5096473;28;20044;-47
2021/03/05 01:05:30;;;;;;;32.10;16.25;;;;;;;3.04;75.60;99603.41;5073725;28;682005;-47
2021/03/05 01:07:57;;;;;;;32.50;17.52;;;;;;;3.06;75.39;99615.50;5097407;28;20044;-47
2021/03/05 01:10:32;;;;;;;33.75;15.88;;;;;;;3.09;75.44;99606.00;5098282;28;20047;-47
2021/03/05 01:12:58;;;;;;;36.42;16.83;;;;;;;3.08;75.22;99617.19;5098696;28;20070;-47
2021/03/05 01:15:24;;;;;;;31.63;16.88;;;;;;;3.05;75.62;99606.84;5097852;28;20039;-47
2021/03/05 01:17:50;;;;;;;35.63;17.85;;;;;;;2.92;76.33;99608.53;5096822;28;20048;-47
2021/03/05 01:20:17;;;;;;;37.60;19.27;;;;;;;3.01;76.05;99603.38;5098005;28;20059;-47
2021/03/05 01:22:43;;;;;;;36.90;18.10;;;;;;;3.05;75.68;99596.50;5096854;28;20353;-47
2021/03/05 01:25:10;;;;;;;36.90;18.45;;;;;;;3.12;75.27;99597.38;5097918;28;20047;-47
2021/03/05 01:27:36;;;;;;;36.83;17.73;;;;;;;3.14;75.17;99599.09;5096780;28;20044;-47
2021/03/05 01:30:04;;;;;;;37.88;19.27;;;;;;;3.02;75.46;99602.56;5097587;28;20447;-47
2021/03/05 01:32:30;;;;;;;37.72;19.40;;;;;;;3.01;75.45;99599.94;5096981;28;20070;-47
2021/03/05 01:34:56;;;;;;;35.63;19.90;;;;;;;2.94;76.05;99606.81;5096823;28;20043;-47
2021/03/05 01:37:21;;;;;;;37.17;18.85;;;;;;;3.07;75.38;99601.69;5096741;28;20040;-47
2021/03/05 01:39:47;;;;;;;41.42;19.45;;;;;;;3.06;75.66;99610.31;5096757;28;20101;-47
2021/03/05 01:42:13;;;;;;;38.80;19.23;;;;;;;3.04;75.53;99598.22;5097583;28;20459;-47
2021/03/05 01:44:39;;;;;;;36.42;20.27;;;;;;;2.98;75.68;99603.38;5097549;28;20063;-47
2021/03/05 01:47:05;;;;;;;38.85;19.95;;;;;;;3.02;75.67;99606.84;5097263;28;20044;-47
2021/03/05 01:49:31;;;;;;;41.22;21.35;;;;;;;2.94;75.91;99612.00;5079690;28;20093;-47
2021/03/05 01:51:57;;;;;;;42.47;22.10;;;;;;;2.78;76.14;99611.09;5096776;28;20340;-47
2021/03/05 01:54:23;;;;;;;41.67;20.73;;;;;;;2.92;76.12;99603.38;5096246;28;20073;-47
2021/03/05 01:56:50;;;;;;;39.05;20.92;;;;;;;2.92;75.99;99607.69;5096896;28;20057;-47
2021/03/05 01:59:30;;;;;;;45.55;22.98;;;;;;;2.92;76.40;99612.84;5097297;28;20349;-47
2021/03/05 02:01:58;;;;;;;42.80;21.30;;;;;;;2.98;76.15;99611.16;5097268;28;20048;-47
2021/03/05 02:04:24;;;;;;;43.67;20.60;;;;;;;3.01;75.97;99620.66;5097314;28;20055;-47
2021/03/05 02:06:49;;;;;;;38.95;20.55;;;;;;;3.09;75.87;99616.38;5097162;28;20083;-47
2021/03/05 02:09:15;;;;;;;43.65;21.10;;;;;;;3.06;75.96;99607.75;5097112;28;20044;-47
2021/03/05 02:11:41;;;;;;;42.75;21.63;;;;;;;3.04;76.25;99620.66;5096226;28;20048;-47
2021/03/05 02:14:07;;;;;;;47.90;24.58;;;;;;;3.06;75.97;99623.25;5096224;28;20064;-47
2021/03/05 02:16:45;;;;;;;48.88;22.50;;;;;;;3.07;75.43;99620.66;5096093;28;20126;-47
2021/03/05 02:19:48;;;;;;;42.47;21.35;;;;;;;2.96;75.60;99624.97;5097022;28;20164;-47
2021/03/05 02:22:45;;;;;;;42.22;21.45;;;;;;;2.97;75.61;99624.94;5096117;28;20048;-47
2021/03/05 02:25:25;;;;;;;44.45;21.55;;;;;;;2.90;75.75;99633.56;5096609;28;20441;-47
2021/03/05 02:28:09;;;;;;;40.88;20.63;;;;;;;2.93;75.47;99622.38;5096634;28;20052;-47
2021/03/05 02:31:04;;;;;;;42.60;22.25;;;;;;;2.83;74.93;99628.34;5096813;28;20044;-47
2021/03/05 02:33:36;;;;;;;39.22;23.95;;;;;;;2.84;75.67;99630.94;5095560;28;20036;-47
2021/03/05 02:36:04;;;;;;;39.05;24.00;;;;;;;2.77;75.61;99642.13;5079206;28;20460;-47
2021/03/05 02:38:29;;;;;;;38.40;20.58;;;;;;;2.64;75.82;99630.88;5095666;28;20051;-47
2021/03/05 02:40:55;;;;;;;28.08;17.10;;;;;;;2.77;74.63;99643.00;5095485;28;20135;-47
2021/03/05 02:43:22;;;;;;;27.77;16.30;;;;;;;2.53;75.01;99635.13;5095677;28;20052;-47
2021/03/05 02:45:52;;;;;;;29.40;16.13;;;;;;;2.60;75.52;99652.41;5078888;28;20056;-47
2021/03/05 02:48:20;;;;;;;31.15;17.25;;;;;;;2.56;75.78;99656.69;5062560;28;20342;-47
2021/03/05 02:50:50;;;;;;;26.02;17.02;;;;;;;2.51;76.26;99660.97;5095959;28;20040;-47
2021/03/05 02:53:17;;;;;;;26.02;16.15;;;;;;;2.37;76.77;99660.03;5095652;28;20048;-47
2021/03/05 02:55:43;;;;;;;22.48;13.77;;;;;;;2.05;77.58;99665.03;5095599;28;20105;-47
2021/03/05 02:58:09;;;;;;;21.88;12.27;;;;;;;2.17;77.87;99667.66;5095518;28;20052;-47
2021/03/05 03:00:35;;;;;;;17.92;11.30;;;;;;;1.99;78.16;99668.41;5095564;28;20450;-47
2021/03/05 03:03:00;;;;;;;20.02;13.50;;;;;;;2.04;78.87;99671.03;5061735;28;20048;-47
2021/03/05 03:05:27;;;;;;;25.17;13.40;;;;;;;2.07;78.34;99673.63;5078338;28;20079;-47
2021/03/05 03:07:53;;;;;;;18.63;12.77;;;;;;;1.81;79.68;99674.28;5096375;28;20043;-47
2021/03/05 03:10:20;;;;;;;21.48;13.23;;;;;;;1.74;80.04;99681.97;5095206;28;20105;-47
2021/03/05 03:12:46;;;;;;;20.92;13.10;;;;;;;1.82;79.08;99686.38;5096054;28;20383;-47
2021/03/05 03:15:13;;;;;;;20.60;12.25;;;;;;;1.46;80.84;99702.38;5078621;28;20459;-47
2021/03/05 03:17:41;;;;;;;20.63;12.13;;;;;;;1.55;80.30;99688.69;5078537;28;20056;-47
2021/03/05 03:20:08;;;;;;;17.63;10.57;;;;;;;1.52;80.48;99702.44;5078766;28;20079;-47
2021/03/05 03:22:34;;;;;;;13.90;10.27;;;;;;;1.43;80.49;99693.72;5095436;28;20051;-47
2021/03/05 03:24:59;;;;;;;15.68;10.27;;;;;;;1.19;81.05;99695.22;5096180;28;20055;-47
2021/03/05 03:27:25;;;;;;;18.27;11.60;;;;;;;1.41;80.73;99693.72;5095850;28;20357;-47
2021/03/05 03:29:51;;;;;;;17.95;10.70;;;;;;;1.23;81.13;99703.84;5094948;28;20048;-47
2021/03/05 03:32:17;;;;;;;19.30;12.65;;;;;;;1.21;81.31;99709.00;5078390;28;20127;-47
2021/03/05 03:34:43;;;;;;;22.33;12.95;;;;;;;1.21;81.50;99711.59;5078235;28;20036;-47
2021/03/05 03:37:10;;;;;;;16.25;11.68;;;;;;;1.10;80.64;99708.88;5095130;28;20044;-47
2021/03/05 03:39:35;;;;;;;21.35;14.88;;;;;;;1.22;80.73;99718.47;5095186;28;20048;-47
2021/03/05 03:42:02;;;;;;;19.63;12.73;;;;;;;1.18;81.00;99716.72;5095181;28;20333;-47
2021/03/05 03:44:27;;;;;;;17.70;12.25;;;;;;;1.24;80.82;99721.94;5096028;28;20044;-47
2021/03/05 03:46:53;;;;;;;23.50;14.60;;;;;;;1.17;81.11;99722.72;5095947;28;20059;-47
2021/03/05 03:49:33;;;;;;;23.27;13.70;;;;;;;1.09;81.42;99729.50;5078678;28;20048;-47
2021/03/05 03:52:10;;;;;;;25.88;14.80;;;;;;;1.20;81.14;99733.06;5095700;28;20068;-47
2021/03/05 03:54:37;;;;;;;22.88;15.07;;;;;;;1.28;80.67;99723.69;5095048;28;20436;-47
2021/03/05 03:57:03;;;;;;;24.98;15.02;;;;;;;1.13;81.13;99716.66;5063609;28;20072;-47
2021/03/05 03:59:33;;;;;;;25.88;15.82;;;;;;;0.99;80.93;99723.38;5099362;28;20041;-47
2021/03/05 04:02:01;;;;;;;22.42;15.27;;;;;;;1.11;81.31;99728.69;5099358;28;20043;-47
2021/03/05 04:04:29;;;;;;;29.25;16.50;;;;;;;1.04;81.75;99723.41;5099147;28;20051;-47
2021/03/05 04:06:55;;;;;;;27.90;17.88;;;;;;;1.16;81.12;99721.84;5082129;28;20052;-47
2021/03/05 04:09:21;;;;;;;27.50;15.48;;;;;;;1.14;80.96;99733.03;5098283;28;20410;-47
2021/03/05 04:11:46;;;;;;;26.83;14.38;;;;;;;1.14;80.84;99735.59;5098517;28;20052;-47
2021/03/05 04:14:12;;;;;;;24.67;16.20;;;;;;;1.12;81.51;99737.28;5099363;28;20348;-47
2021/03/05 04:16:38;;;;;;;26.58;16.40;;;;;;;1.23;80.85;99747.72;5098902;28;20052;-47
2021/03/05 04:19:04;;;;;;;29.40;16.33;;;;;;;1.01;81.32;99746.59;5064844;28;20052;-47
2021/03/05 04:21:32;;;;;;;26.83;17.48;;;;;;;1.15;80.90;99748.50;5099198;28;20353;-47
2021/03/05 04:23:58;;;;;;;28.30;17.02;;;;;;;1.20;80.48;99743.38;5098859;28;20044;-47
2021/03/05 04:26:23;;;;;;;25.27;16.17;;;;;;;1.17;80.34;99736.50;5098226;28;20058;-47
2021/03/05 04:28:49;;;;;;;23.83;14.43;;;;;;;1.02;80.45;99748.34;5099059;28;20051;-46
2021/03/05 04:31:15;;;;;;;25.80;14.57;;;;;;;0.88;80.83;99743.88;5097865;28;20085;-47
2021/03/05 04:33:41;;;;;;;27.33;15.40;;;;;;;0.89;80.62;99748.19;5098350;28;20054;-47
2021/03/05 04:36:07;;;;;;;26.80;15.23;;;;;;;0.93;81.26;99751.66;5098921;28;20051;-47
2021/03/05 04:38:33;;;;;;;24.15;13.40;;;;;;;0.97;81.14;99753.41;5099121;28;20040;-47
2021/03/05 04:40:58;;;;;;;21.08;14.15;;;;;;;0.96;81.38;99756.84;5081997;28;20059;-47
2021/03/05 04:43:24;;;;;;;21.10;13.50;;;;;;;0.96;81.28;99774.06;5098774;28;20047;-47
2021/03/05 04:45:50;;;;;;;26.15;14.57;;;;;;;0.94;81.21;99768.84;5098471;28;20051;-47
2021/03/05 04:48:16;;;;;;;22.92;14.23;;;;;;;1.03;80.19;99774.13;5098634;28;20402;-47
2021/03/05 04:50:42;;;;;;;25.67;13.70;;;;;;;0.94;80.60;99774.00;5098376;28;20424;-47
2021/03/05 04:53:08;;;;;;;22.42;12.63;;;;;;;0.72;81.41;99779.75;5097722;28;20415;-47
2021/03/05 04:55:33;;;;;;;21.15;12.52;;;;;;;0.88;81.31;99779.97;5098521;28;20059;-47
2021/03/05 04:57:59;;;;;;;20.73;12.18;;;;;;;0.93;80.62;99788.63;5098432;28;20421;-47
2021/03/05 05:00:25;;;;;;;14.10;9.57;;;;;;;1.01;80.33;99790.44;5097578;28;20044;-47
2021/03/05 05:02:51;;;;;;;15.45;7.70;;;;;;;0.86;79.96;99801.44;5098433;28;20086;-47
2021/03/05 05:05:17;;;;;;;12.32;6.78;;;;;;;0.86;79.52;99791.97;5097959;28;20364;-47
2021/03/05 05:07:42;;;;;;;14.23;7.25;;;;;;;0.80;79.82;99799.63;5096082;28;20044;-47
2021/03/05 05:10:09;;;;;;;17.20;8.15;;;;;;;0.81;79.75;99797.91;5098177;28;20055;-47
2021/03/05 05:12:35;;;;;;;15.05;7.18;;;;;;;0.76;80.30;99795.28;5097111;28;20044;-47
2021/03/05 05:15:01;;;;;;;18.02;8.38;;;;;;;0.72;80.25;99802.97;5098140;28;20075;-47
2021/03/05 05:17:26;;;;;;;20.92;7.68;;;;;;;0.61;80.12;99810.50;5097124;28;20044;-47
2021/03/05 05:19:53;;;;;;;20.08;8.52;;;;;;;0.79;80.21;99805.63;5097197;28;20111;-47
2021/03/05 05:22:20;;;;;;;16.60;7.82;;;;;;;0.73;80.29;99815.00;5097749;28;20036;-47
2021/03/05 05:24:46;;;;;;;19.13;8.75;;;;;;;0.66;81.00;99817.47;5096764;28;20055;-47
2021/03/05 05:27:11;;;;;;;28.10;11.10;;;;;;;0.80;80.19;99820.25;5097709;28;20044;-47
2021/03/05 05:29:37;;;;;;;21.48;10.30;;;;;;;0.69;80.77;99814.94;5097599;28;20445;-47
2021/03/05 05:32:03;;;;;;;18.55;7.95;;;;;;;0.74;80.75;99835.63;5097484;28;20047;-46
2021/03/05 05:34:29;;;;;;;26.35;12.32;;;;;;;0.72;80.95;99827.03;5097532;28;20523;-47
2021/03/05 05:36:55;;;;;;;21.23;10.35;;;;;;;0.62;80.71;99831.19;5097666;28;20044;-47
2021/03/05 05:39:21;;;;;;;29.55;14.93;;;;;;;0.66;80.54;99835.53;5096573;28;20101;-47
2021/03/05 05:41:46;;;;;;;35.78;16.20;;;;;;;0.69;80.60;99842.44;5097606;28;20048;-47
2021/03/05 05:44:12;;;;;;;22.33;9.75;;;;;;;0.75;80.18;99841.66;5097633;28;20340;-47
2021/03/05 05:46:38;;;;;;;45.72;17.05;;;;;;;0.80;80.22;99847.75;5096677;28;20055;-47
2021/03/05 05:49:04;;;;;;;54.53;19.75;;;;;;;0.76;80.35;99849.44;5097255;28;20040;-47
2021/03/05 05:51:33;;;;;;;20.70;8.35;;;;;;;0.81;79.38;99850.34;5079798;28;20169;-47
2021/03/05 05:54:04;;;;;;;25.95;11.32;;;;;;;0.74;79.25;99857.97;5097166;28;20098;-47
2021/03/05 05:56:30;;;;;;;50.10;16.75;;;;;;;0.54;80.00;99845.63;5097180;28;20044;-47
2021/03/05 05:58:56;;;;;;;34.60;12.40;;;;;;;0.79;79.82;99851.19;5096051;28;20044;-47
2021/03/05 06:01:22;;;;;;;19.58;8.63;;;;;;;0.79;79.36;99858.91;5080368;28;20059;-47
2021/03/05 06:03:48;;;;;;;21.77;8.05;;;;;;;0.83;79.27;99855.53;5096940;28;20559;-47
2021/03/05 06:06:13;;;;;;;28.67;12.23;;;;;;;0.88;78.89;99856.50;5095933;28;20359;-47
2021/03/05 06:08:39;;;;;;;18.48;8.80;;;;;;;0.84;78.54;99857.25;5079469;28;20044;-47
2021/03/05 06:11:05;;;;;;;18.80;6.78;;;;;;;0.85;78.36;99859.88;5096574;28;20413;-47
2021/03/05 06:13:31;;;;;;;21.65;7.82;;;;;;;0.79;78.79;99862.38;5096762;28;20063;-47
2021/03/05 06:16:14;;;;;;;14.80;6.40;;;;;;;0.93;78.20;99873.75;5096182;28;20044;-47
2021/03/05 06:18:40;;;;;;;29.85;11.90;;;;;;;0.86;78.81;99876.22;5095489;28;20105;-47
2021/03/05 06:21:06;;;;;;;33.53;12.00;;;;;;;0.85;79.05;99879.66;5078971;28;20036;-47
2021/03/05 06:23:34;;;;;;;25.45;10.73;;;;;;;0.89;79.05;99881.41;5078933;28;20052;-47
2021/03/05 06:26:00;;;;;;;27.02;9.10;;;;;;;1.04;78.36;99889.41;5096605;28;20064;-47
2021/03/05 06:28:27;;;;;;;26.10;8.02;;;;;;;0.96;78.57;99892.69;5096587;28;20036;-47
2021/03/05 06:30:53;;;;;;;147.52;50.63;;;;;;;1.01;78.61;99893.63;5078927;28;20441;-47
2021/03/05 06:33:28;;;;;;;73.55;17.70;;;;;;;1.09;78.01;99904.94;5096769;28;20044;-47
2021/03/05 06:35:54;;;;;;;29.10;9.93;;;;;;;1.19;77.35;99905.94;5079602;28;20051;-47
2021/03/05 06:38:39;;;;;;;24.60;11.30;;;;;;;1.23;77.00;99918.03;5096582;28;20044;-47
2021/03/05 06:41:14;;;;;;;23.80;8.85;;;;;;;1.25;76.91;99921.50;5096676;28;20063;-47
2021/03/05 06:43:53;;;;;;;35.17;13.27;;;;;;;1.24;76.92;99919.78;5096619;28;20040;-47
2021/03/05 06:46:26;;;;;;;40.65;11.40;;;;;;;1.39;76.57;99928.56;5096371;28;20036;-47
2021/03/05 06:48:52;;;;;;;33.83;10.05;;;;;;;1.39;75.37;99938.91;5078693;28;20398;-47
2021/03/05 06:51:18;;;;;;;43.38;13.27;;;;;;;1.29;76.30;99944.78;5096212;28;20050;-47
2021/03/05 06:53:44;;;;;;;92.22;38.63;;;;;;;1.32;76.63;99947.41;5078665;28;20044;-47
2021/03/05 06:56:27;;;;;;;58.08;26.23;;;;;;;1.37;76.05;99953.53;5078508;28;20106;-47
2021/03/05 06:59:02;;;;;;;;;;;;;;;1.19;76.32;99950.66;5095997;28;20048;-47
2021/03/05 07:01:27;;;;;;;16.33;7.05;;;;;;;1.34;75.35;99965.53;5096437;28;19920;-47
2021/03/05 07:04:10;;;;;;;25.17;9.25;;;;;;;1.17;75.56;99966.13;5095261;28;20059;-47
2021/03/05 07:06:36;;;;;;;19.03;8.83;;;;;;;1.17;75.41;99979.03;5095608;28;20059;-47
2021/03/05 07:09:04;;;;;;;16.38;7.72;;;;;;;1.30;74.43;99974.94;5096285;28;20282;-47
2021/03/05 07:11:40;;;;;;;19.55;8.88;;;;;;;1.26;73.81;99982.59;5096087;28;20349;-47
2021/03/05 07:14:08;;;;;;;18.90;9.23;;;;;;;1.32;73.83;99985.25;5061921;28;20055;-47
2021/03/05 07:16:48;;;;;;;25.30;10.38;;;;;;;1.35;74.24;99990.47;5096266;28;20110;-47
2021/03/05 07:19:18;;;;;;;22.20;9.00;;;;;;;1.30;73.94;99992.09;5078460;28;20063;-47
2021/03/05 07:21:45;;;;;;;20.55;8.23;;;;;;;1.32;74.21;99993.88;5095359;28;20051;-47
2021/03/05 07:24:12;;;;;;;19.95;9.65;;;;;;;1.42;73.53;99989.72;5095093;28;20044;-47
2021/03/05 07:26:52;;;;;;;18.80;7.78;;;;;;;1.67;72.92;100005.56;5096207;28;20059;-47
2021/03/05 07:29:56;;;;;;;17.00;9.30;;;;;;;1.91;71.78;100002.44;5095416;28;20044;-47
2021/03/05 07:32:38;;;;;;;23.60;11.32;;;;;;;1.78;71.88;100014.31;5086749;28;20105;-47
2021/03/05 07:35:05;;;;;;;13.93;6.63;;;;;;;1.92;70.05;100014.50;5100139;28;20056;-47
2021/03/05 07:37:32;;;;;;;13.77;7.38;;;;;;;1.59;70.19;100018.34;5099093;28;20123;-47
2021/03/05 07:40:03;;;;;;;17.48;5.90;;;;;;;1.73;69.29;100022.00;5099497;28;20463;-47
2021/03/05 07:42:29;;;;;;;13.38;5.43;;;;;;;1.63;69.69;100026.19;5098924;28;20036;-47
2021/03/05 07:44:56;;;;;;;14.18;5.68;;;;;;;1.76;68.95;100029.81;5098665;28;20056;-47
2021/03/05 07:47:22;;;;;;;13.55;5.03;;;;;;;1.98;68.59;100027.50;5098498;28;20073;-47
2021/03/05 07:49:48;;;;;;;13.27;4.70;;;;;;;2.03;67.90;100034.47;5080472;28;20348;-47
2021/03/05 07:52:13;;;;;;;17.73;8.95;;;;;;;1.78;68.27;100038.44;5079718;28;20436;-47
2021/03/05 07:54:39;;;;;;;27.35;11.02;;;;;;;1.72;69.28;100048.66;5079950;28;20048;-47
2021/03/05 07:57:06;;;;;;;55.58;17.42;;;;;;;1.93;69.62;100049.84;5097273;28;20087;-47
2021/03/05 07:59:52;;;;;;;12.48;5.50;;;;;;;2.39;67.83;100040.06;5097694;28;20368;-47
2021/03/05 08:02:22;;;;;;;13.80;6.32;;;;;;;2.79;66.80;100047.44;5097096;28;20056;-47
2021/03/05 08:04:55;;;;;;;12.20;4.97;;;;;;;2.94;65.68;100054.47;5080126;28;20051;-47
2021/03/05 08:07:26;;;;;;;11.90;4.65;;;;;;;3.27;65.15;100060.81;5099824;28;20185;-47
2021/03/05 08:09:52;;;;;;;19.30;9.45;;;;;;;3.38;64.87;100053.09;5099142;28;20036;-47
2021/03/05 08:13:00;;;;;;;26.80;13.73;;;;;;;3.73;64.29;100055.97;5099084;28;20044;-47
2021/03/05 08:15:19;;;;;;;15.82;7.45;;;;;;;4.19;62.02;100061.41;5099600;28;20048;-47
2021/03/05 08:17:48;;;;;;;33.03;13.50;;;;;;;4.32;61.80;100067.50;5098284;28;20040;-47
2021/03/05 08:20:17;;;;;;;41.97;16.50;;;;;;;4.81;59.51;100063.38;5098302;28;20360;-47
2021/03/05 08:22:58;;;;;;;34.28;9.00;;;;;;;4.73;58.40;100059.03;5098904;28;20421;-47
2021/03/05 08:25:24;;;;;;;13.40;5.85;;;;;;;4.87;56.43;100063.38;5097996;28;20409;-47
2021/03/05 08:27:50;;;;;;;15.82;6.75;;;;;;;4.93;56.35;100067.72;5098827;28;20174;-47
2021/03/05 08:30:19;;;;;;;7.03;3.55;;;;;;;5.15;55.30;100066.03;5097873;28;20103;-47
2021/03/05 08:32:51;;;;;;;89.35;28.67;;;;;;;5.02;56.61;100070.31;5098922;28;20086;-48
2021/03/05 08:35:18;;;;;;;30.75;11.15;;;;;;;5.31;56.19;100074.69;5098907;28;20064;-48
2021/03/05 08:37:45;;;;;;;31.63;11.05;;;;;;;5.00;56.63;100077.22;5081211;28;20109;-48
2021/03/05 08:40:11;;;;;;;12.23;4.82;;;;;;;5.12;55.97;100079.84;5098452;28;20043;-48
2021/03/05 08:42:40;;;;;;;240.65;88.85;;;;;;;5.64;56.31;100079.00;5098513;28;20101;-48
2021/03/05 08:45:18;;;;;;;144.70;35.20;;;;;;;5.15;51.94;100081.59;5098693;28;20369;-48
2021/03/05 08:47:54;;;;;;;30.42;7.95;;;;;;;4.48;53.24;100087.47;5098755;28;20040;-48
2021/03/05 08:50:21;;;;;;;88.30;18.77;;;;;;;4.15;53.17;100083.84;5098651;28;20131;-47
2021/03/05 08:52:48;;;;;;;8.70;4.38;;;;;;;4.67;54.31;100088.41;5080666;28;20052;-48
2021/03/05 08:55:15;;;;;;;129.13;29.48;;;;;;;4.66;52.70;100087.53;5097279;28;20448;-48
2021/03/05 08:57:43;;;;;;;17.45;4.93;;;;;;;4.73;52.58;100087.56;5098852;28;20062;-48
2021/03/05 09:00:12;;;;;;;10.52;6.82;;;;;;;4.91;51.27;100096.28;5098185;28;20036;-48
2021/03/05 09:02:38;;;;;;;14.60;9.85;;;;;;;5.00;52.30;100087.63;5098068;28;20047;-48
2021/03/05 09:05:04;;;;;;;22.13;8.32;;;;;;;5.07;50.96;100092.00;5097875;28;20055;-48
2021/03/05 09:07:30;;;;;;;21.67;7.53;;;;;;;4.88;49.81;100098.00;5098013;28;20437;-48
2021/03/05 09:09:56;;;;;;;17.13;5.22;;;;;;;4.86;51.32;100094.53;5097965;28;20036;-48
2021/03/05 09:12:22;;;;;;;23.95;7.22;;;;;;;5.02;50.11;100096.28;5098455;28;20047;-48
2021/03/05 09:14:57;;;;;;;9.48;3.75;;;;;;;4.69;48.89;100095.34;5096984;28;20036;-48
2021/03/05 09:17:23;;;;;;;77.32;23.45;;;;;;;4.54;49.82;100105.66;5098362;28;20040;-48
2021/03/05 09:19:49;;;;;;;25.48;9.00;;;;;;;4.43;50.04;100123.78;5097755;28;20113;-48
2021/03/05 09:22:18;;;;;;;25.20;9.13;;;;;;;4.45;49.98;100113.38;5097734;28;20040;-48
2021/03/05 09:24:53;;;;;;;12.18;5.13;;;;;;;4.68;49.24;100109.19;5097915;28;20444;-48
2021/03/05 09:27:24;;;;;;;254.05;50.90;;;;;;;4.72;50.42;100112.66;5097699;28;20086;-48
2021/03/05 09:29:50;;;;;;;43.25;13.25;;;;;;;4.83;50.23;100108.34;5097828;28;20052;-48
2021/03/05 09:32:16;;;;;;;18.98;7.22;;;;;;;5.33;47.90;100110.19;5096944;28;20161;-48
2021/03/05 09:34:56;;;;;;;14.30;4.95;;;;;;;5.44;45.05;100123.19;5096654;28;20097;-48
2021/03/05 09:37:23;;;;;;;103.70;22.77;;;;;;;5.37;44.86;100111.06;5097662;28;20055;-48
2021/03/05 09:39:51;;;;;;;75.63;15.68;;;;;;;5.77;46.57;100116.25;5096505;28;20040;-48
2021/03/05 09:42:17;;;;;;;43.97;10.77;;;;;;;5.84;43.39;100117.97;5097617;28;20052;-48
2021/03/05 09:44:46;;;;;;;55.40;12.15;;;;;;;5.71;43.46;100111.06;5096820;28;20436;-48
2021/03/05 09:47:12;;;;;;;32.60;9.15;;;;;;;5.88;44.72;100118.84;5097181;28;20044;-48
2021/03/05 09:49:38;;;;;;;26.85;8.13;;;;;;;6.14;45.84;100129.25;5097389;28;20052;-48
2021/03/05 09:52:04;;;;;;;4.88;2.20;;;;;;;6.21;43.43;100128.38;5096555;28;20058;-48
2021/03/05 09:54:34;;;;;;;4.40;1.52;;;;;;;6.37;42.78;100127.47;5095856;28;20052;-48
2021/03/05 09:57:00;;;;;;;8.05;2.85;;;;;;;6.29;42.51;100132.69;5097573;28;20044;-49
2021/03/05 09:59:51;;;;;;;27.02;7.88;;;;;;;5.74;41.65;100134.47;5096894;28;20097;-48
2021/03/05 10:02:20;;;;;;;13.77;6.65;;;;;;;5.60;42.42;100142.25;5096669;28;20040;-48
2021/03/05 10:04:50;;;;;;;20.23;6.45;;;;;;;5.60;41.99;100147.47;5096118;28;20051;-48
2021/03/05 10:07:17;;;;;;;7.30;2.90;;;;;;;5.21;42.75;100145.69;5094846;28;20047;-48
2021/03/05 10:09:43;;;;;;;3.70;1.33;;;;;;;4.86;43.11;100160.28;5095152;28;20055;-48
2021/03/05 10:12:09;;;;;;;25.10;6.05;;;;;;;4.81;43.70;100162.00;5094855;28;20396;-48
2021/03/05 10:14:39;;;;;;;9.43;3.90;;;;;;;4.61;44.02;100159.28;5095050;28;20059;-48
2021/03/05 10:17:13;;;;;;;10.85;4.95;;;;;;;4.84;44.78;100168.91;5094643;28;20432;-48
2021/03/05 10:19:40;;;;;;;4.65;2.28;;;;;;;5.04;44.62;100162.09;5093827;28;20395;-48
2021/03/05 10:22:07;;;;;;;300.73;87.10;;;;;;;5.21;42.93;100164.72;5095108;28;20052;-49
2021/03/05 10:24:33;;;;;;;66.18;14.32;;;;;;;5.46;44.08;100168.25;5096913;28;20040;-48
2021/03/05 10:27:14;;;;;;;76.50;15.93;;;;;;;6.08;43.00;100163.94;5096863;28;20330;-48
2021/03/05 10:29:50;;;;;;;19.00;5.03;;;;;;;6.36;41.06;100164.75;5096790;28;20093;-48
2021/03/05 10:32:22;;;;;;;95.50;22.83;;;;;;;6.40;42.31;100179.50;5097040;28;20036;-48
2021/03/05 10:34:49;;;;;;;61.45;13.75;;;;;;;6.29;40.71;100182.09;5096757;28;20063;-48
2021/03/05 10:37:15;;;;;;;77.97;17.98;;;;;;;6.28;41.29;100174.31;5079233;28;20040;-48
2021/03/05 10:39:41;;;;;;;74.25;17.67;;;;;;;6.41;41.28;100185.56;5096632;28;20058;-48
2021/03/05 10:42:12;;;;;;;44.88;10.70;;;;;;;6.02;40.50;100193.41;5095427;28;20503;-48
2021/03/05 10:44:38;;;;;;;110.55;22.40;;;;;;;5.63;41.42;100200.31;5096357;28;20044;-48
2021/03/05 10:47:06;;;;;;;4.82;2.05;;;;;;;5.70;41.72;100197.72;5096518;28;20134;-48
2021/03/05 10:49:31;;;;;;;31.30;7.57;;;;;;;5.45;42.21;100199.41;5096313;28;20440;-48
2021/03/05 10:51:57;;;;;;;37.45;10.57;;;;;;;5.35;42.96;100201.09;5095257;28;20048;-48
2021/03/05 10:54:23;;;;;;;9.45;3.08;;;;;;;5.30;42.82;100208.03;5095916;28;20098;-48
2021/03/05 10:56:50;;;;;;;15.75;5.45;;;;;;;5.21;43.31;100200.22;5096486;28;20036;-48
2021/03/05 10:59:17;;;;;;;25.48;7.57;;;;;;;5.36;43.58;100211.53;5096287;28;20048;-48
2021/03/05 11:01:44;;;;;;;67.18;18.88;;;;;;;5.85;43.04;100205.53;5095473;28;20127;-48
2021/03/05 11:04:10;;;;;;;35.42;10.43;;;;;;;5.62;40.67;100201.16;5095013;28;20457;-48
2021/03/05 11:06:35;;;;;;;57.38;13.75;;;;;;;5.95;42.51;100201.22;5099249;28;20058;-48
2021/03/05 11:09:04;;;;;;;39.33;13.25;;;;;;;6.50;41.94;100201.13;5100545;28;20048;-48
2021/03/05 11:11:29;;;;;;;9.90;4.38;;;;;;;6.37;42.17;100207.22;5099354;28;20040;-48
2021/03/05 11:13:55;;;;;;;67.35;18.75;;;;;;;6.26;41.88;100207.25;5100202;28;20321;-48
2021/03/05 11:16:21;;;;;;;16.92;6.18;;;;;;;5.98;42.39;100222.91;5098511;28;20440;-48
2021/03/05 11:18:47;;;;;;;14.20;5.35;;;;;;;5.77;42.89;100212.44;5098197;28;20115;-48
2021/03/05 11:21:13;;;;;;;29.45;9.25;;;;;;;5.36;43.96;100226.22;5098082;28;20052;-48
2021/03/05 11:23:39;;;;;;;7.18;2.70;;;;;;;5.38;43.79;100220.16;5098299;28;20052;-48
2021/03/05 11:26:05;;;;;;;67.30;30.73;;;;;;;5.28;44.68;100221.00;5098034;28;20387;-48
2021/03/05 11:28:30;;;;;;;32.80;15.00;;;;;;;5.09;44.77;100227.84;5097967;28;20052;-48
2021/03/05 11:30:56;;;;;;;27.17;11.57;;;;;;;5.13;45.54;100231.31;5098876;28;20105;-48
2021/03/05 11:33:22;;;;;;;13.82;5.43;;;;;;;5.20;44.51;100229.63;5099808;28;20048;-48